createdAt,value
2022-07-25T00:00:25.979Z,74.53
2022-07-25T00:02:52.481Z,74.71
2022-07-25T00:05:19.003Z,75.02
2022-07-25T00:07:45.495Z,75.25
2022-07-25T00:10:12.118Z,75.42
2022-07-25T00:12:38.700Z,75.99
2022-07-25T00:15:06.325Z,75.45
2022-07-25T00:17:32.841Z,76.13
2022-07-25T00:19:59.362Z,76.10
2022-07-25T00:22:25.887Z,76.38
2022-07-25T00:24:52.493Z,76.31
2022-07-25T00:27:19.088Z,76.64
2022-07-25T00:29:45.682Z,77.29
2022-07-25T00:32:12.519Z,76.81
2022-07-25T00:34:39.125Z,76.98
2022-07-25T00:37:05.656Z,76.82
2022-07-25T00:39:32.202Z,77.01
2022-07-25T00:42:02.326Z,77.00
2022-07-25T00:44:31.134Z,76.73
2022-07-25T00:46:58.788Z,76.67
2022-07-25T00:49:26.087Z,76.56
2022-07-25T00:51:54.231Z,77.46
2022-07-25T00:54:21.866Z,77.20
2022-07-25T00:56:49.346Z,76.63
2022-07-25T00:59:17.129Z,76.00
2022-07-25T01:01:45.631Z,76.59
2022-07-25T01:04:12.332Z,76.35
2022-07-25T01:06:39.099Z,75.90
2022-07-25T01:09:05.816Z,75.60
2022-07-25T01:11:32.587Z,76.54
2022-07-25T01:13:59.313Z,76.68
2022-07-25T01:16:25.861Z,76.65
2022-07-25T01:18:52.427Z,77.29
2022-07-25T01:21:18.979Z,76.55
2022-07-25T01:23:45.439Z,76.12
2022-07-25T01:26:11.976Z,76.01
2022-07-25T01:28:38.549Z,76.46
2022-07-25T01:31:05.804Z,75.97
2022-07-25T01:33:32.470Z,75.91
2022-07-25T01:35:59.168Z,75.56
2022-07-25T01:38:25.712Z,75.29
2022-07-25T01:40:52.279Z,75.72
2022-07-25T01:43:18.826Z,75.60
2022-07-25T01:45:45.304Z,75.28
2022-07-25T01:48:11.823Z,75.06
2022-07-25T01:50:38.336Z,74.17
2022-07-25T01:53:05.323Z,74.59
2022-07-25T01:55:31.967Z,74.27
2022-07-25T01:57:59.198Z,74.86
2022-07-25T02:00:26.329Z,75.07
2022-07-25T02:03:12.849Z,74.48
2022-07-25T02:05:39.517Z,74.92
2022-07-25T02:08:06.266Z,75.15
2022-07-25T02:10:33.106Z,74.06
2022-07-25T02:13:00.719Z,74.09
2022-07-25T02:15:27.262Z,73.60
2022-07-25T02:17:53.835Z,73.87
2022-07-25T02:20:20.408Z,73.79
2022-07-25T02:22:46.917Z,73.56
2022-07-25T02:25:13.450Z,73.28
2022-07-25T02:27:40.004Z,72.96
2022-07-25T02:30:07.250Z,74.14
2022-07-25T02:32:33.820Z,73.71
2022-07-25T02:35:00.320Z,73.62
2022-07-25T02:37:26.881Z,73.37
2022-07-25T02:39:53.322Z,73.73
2022-07-25T02:42:19.841Z,74.59
2022-07-25T02:44:46.397Z,74.65
2022-07-25T02:47:12.927Z,74.88
2022-07-25T02:49:39.453Z,75.00
2022-07-25T02:52:05.985Z,75.01
2022-07-25T02:54:32.494Z,75.06
2022-07-25T02:56:58.976Z,76.30
2022-07-25T02:59:25.476Z,75.69
2022-07-25T03:01:58.795Z,76.23
2022-07-25T03:04:25.494Z,76.25
2022-07-25T03:06:52.060Z,76.98
2022-07-25T03:09:19.118Z,76.87
2022-07-25T03:11:46.283Z,76.95
2022-07-25T03:14:12.716Z,77.85
2022-07-25T03:16:39.267Z,77.37
2022-07-25T03:19:10.202Z,76.98
2022-07-25T03:21:40.206Z,77.00
2022-07-25T03:24:07.167Z,76.45
2022-07-25T03:26:33.884Z,76.74
2022-07-25T03:29:00.390Z,76.38
2022-07-25T03:31:26.940Z,76.85
2022-07-25T03:33:53.436Z,75.91
2022-07-25T03:36:19.944Z,76.08
2022-07-25T03:38:46.517Z,77.26
2022-07-25T03:41:13.563Z,77.50
2022-07-25T03:43:40.238Z,77.77
2022-07-25T03:46:06.871Z,77.13
2022-07-25T03:48:33.529Z,76.89
2022-07-25T03:51:04.884Z,76.97
2022-07-25T03:53:33.546Z,76.67
2022-07-25T03:56:00.008Z,76.34
2022-07-25T03:58:26.520Z,76.35
2022-07-25T04:00:53.055Z,76.61
2022-07-25T04:03:19.820Z,76.73
2022-07-25T04:05:47.749Z,76.23
2022-07-25T04:08:14.554Z,75.75
2022-07-25T04:10:41.028Z,75.50
2022-07-25T04:13:08.401Z,75.11
2022-07-25T04:15:34.895Z,75.14
2022-07-25T04:18:01.393Z,75.11
2022-07-25T04:20:28.637Z,74.42
2022-07-25T04:22:55.930Z,74.68
2022-07-25T04:25:22.426Z,74.98
2022-07-25T04:27:48.980Z,74.60
2022-07-25T04:30:23.736Z,74.95
2022-07-25T04:32:51.771Z,75.08
2022-07-25T04:35:18.239Z,74.15
2022-07-25T04:37:44.682Z,73.71
2022-07-25T04:40:11.761Z,74.19
2022-07-25T04:42:38.283Z,73.70
2022-07-25T04:45:05.065Z,73.58
2022-07-25T04:47:31.577Z,72.66
2022-07-25T04:49:58.101Z,72.66
2022-07-25T04:52:24.627Z,73.48
2022-07-25T04:54:51.086Z,74.18
2022-07-25T04:57:17.603Z,74.97
2022-07-25T04:59:44.379Z,73.97
2022-07-25T05:02:11.107Z,74.68
2022-07-25T05:04:43.372Z,74.38
2022-07-25T05:07:11.675Z,74.71
2022-07-25T05:09:38.326Z,72.54
2022-07-25T05:12:04.932Z,72.64
2022-07-25T05:14:31.728Z,71.10
2022-07-25T05:16:58.235Z,73.16
2022-07-25T05:19:24.972Z,71.11
2022-07-25T05:21:51.701Z,70.78
2022-07-25T05:24:18.216Z,68.22
2022-07-25T05:26:44.686Z,66.78
2022-07-25T05:29:12.091Z,68.79
2022-07-25T05:32:00.021Z,65.80
2022-07-25T05:34:29.956Z,65.32
2022-07-25T05:37:02.397Z,65.38
2022-07-25T05:39:38.798Z,66.52
2022-07-25T05:42:10.148Z,64.88
2022-07-25T05:44:42.931Z,64.87
2022-07-25T05:47:14.688Z,65.58
2022-07-25T05:49:47.743Z,63.63
2022-07-25T05:52:16.812Z,64.57
2022-07-25T05:54:55.971Z,63.47
2022-07-25T05:57:45.276Z,63.27
2022-07-25T06:00:42.065Z,63.27
2022-07-25T06:03:24.256Z,64.67
2022-07-25T06:06:05.116Z,64.59
2022-07-25T06:08:31.624Z,64.01
2022-07-25T06:11:00.523Z,65.45
2022-07-25T06:13:28.463Z,65.20
2022-07-25T06:15:55.021Z,63.10
2022-07-25T06:18:22.058Z,63.89
2022-07-25T06:20:48.812Z,63.33
2022-07-25T06:23:16.367Z,63.00
2022-07-25T06:25:42.955Z,63.06
2022-07-25T06:28:18.345Z,64.95
2022-07-25T06:30:45.749Z,65.31
2022-07-25T06:33:13.295Z,64.93
2022-07-25T06:35:39.836Z,64.10
2022-07-25T06:38:06.467Z,62.36
2022-07-25T06:40:33.159Z,63.15
2022-07-25T06:43:00.066Z,63.74
2022-07-25T06:45:26.593Z,63.69
2022-07-25T06:47:53.282Z,62.90
2022-07-25T06:50:21.340Z,63.24
2022-07-25T06:52:48.188Z,64.29
2022-07-25T06:55:15.834Z,63.70
2022-07-25T06:57:43.339Z,61.37
2022-07-25T07:00:12.121Z,60.48
2022-07-25T07:02:53.160Z,59.92
2022-07-25T07:05:20.774Z,61.86
2022-07-25T07:07:48.234Z,61.39
2022-07-25T07:10:16.002Z,64.70
2022-07-25T07:12:42.621Z,62.38
2022-07-25T07:15:09.688Z,62.89
2022-07-25T07:17:36.726Z,62.98
2022-07-25T07:20:05.250Z,63.18
2022-07-25T07:22:31.807Z,64.27
2022-07-25T07:24:59.138Z,61.41
2022-07-25T07:27:25.657Z,60.63
2022-07-25T07:29:52.136Z,60.81
2022-07-25T07:32:18.829Z,60.24
2022-07-25T07:34:45.375Z,60.04
2022-07-25T07:37:11.860Z,60.88
2022-07-25T07:39:38.397Z,60.78
2022-07-25T07:42:04.978Z,59.92
2022-07-25T07:44:31.535Z,57.79
2022-07-25T07:47:02.490Z,57.10
2022-07-25T07:49:29.846Z,54.78
2022-07-25T07:51:56.531Z,54.97
2022-07-25T07:54:41.786Z,55.72
2022-07-25T07:57:08.373Z,54.17
2022-07-25T07:59:34.944Z,53.91
2022-07-25T08:02:01.867Z,53.61
2022-07-25T08:04:28.507Z,52.56
2022-07-25T08:06:55.061Z,52.37
2022-07-25T08:09:21.645Z,51.29
2022-07-25T08:11:48.212Z,51.78
2022-07-25T08:14:15.079Z,48.83
2022-07-25T08:16:41.697Z,53.63
2022-07-25T08:19:09.277Z,51.09
2022-07-25T08:21:35.845Z,49.76
2022-07-25T08:24:02.368Z,53.46
2022-07-25T08:26:30.463Z,48.46
2022-07-25T08:29:17.620Z,48.46
2022-07-25T08:31:43.913Z,50.84
2022-07-25T08:34:10.554Z,50.34
2022-07-25T08:36:37.746Z,49.11
2022-07-25T08:39:04.432Z,49.26
2022-07-25T08:41:33.399Z,50.09
2022-07-25T08:44:03.274Z,51.11
2022-07-25T08:46:31.214Z,47.83
2022-07-25T08:48:58.141Z,49.00
2022-07-25T08:51:24.963Z,48.04
2022-07-25T08:53:51.958Z,48.31
2022-07-25T08:56:21.198Z,47.88
2022-07-25T08:58:49.481Z,47.66
2022-07-25T09:01:16.177Z,46.14
2022-07-25T09:03:43.559Z,47.30
2022-07-25T09:06:20.993Z,47.07
2022-07-25T09:09:14.045Z,47.09
2022-07-25T09:11:40.501Z,48.90
2022-07-25T09:14:10.339Z,49.92
2022-07-25T09:16:44.356Z,49.81
2022-07-25T09:19:22.230Z,47.57
2022-07-25T09:22:17.947Z,47.72
2022-07-25T09:24:45.844Z,48.97
2022-07-25T09:27:13.054Z,48.11
2022-07-25T09:29:42.557Z,47.50
2022-07-25T09:32:15.142Z,48.63
2022-07-25T09:34:43.272Z,47.19
2022-07-25T09:37:14.676Z,47.51
2022-07-25T09:39:47.110Z,48.09
2022-07-25T09:42:28.734Z,47.38
2022-07-25T09:45:06.711Z,48.35
2022-07-25T09:47:36.144Z,46.10
2022-07-25T09:50:04.200Z,48.01
2022-07-25T09:52:31.545Z,46.43
2022-07-25T09:54:58.057Z,47.59
2022-07-25T09:57:25.783Z,47.59
2022-07-25T09:59:54.063Z,50.09
2022-07-25T10:02:39.240Z,49.72
2022-07-25T10:05:32.102Z,48.97
2022-07-25T10:07:59.376Z,49.39
2022-07-25T10:10:31.363Z,47.77
2022-07-25T10:13:06.501Z,47.85
2022-07-25T10:15:45.457Z,47.41
2022-07-25T10:18:13.847Z,48.73
2022-07-25T10:20:40.990Z,47.98
2022-07-25T10:23:19.293Z,50.94
2022-07-25T10:25:49.127Z,49.16
2022-07-25T10:28:18.819Z,50.83
2022-07-25T10:30:45.725Z,49.46
2022-07-25T10:33:15.578Z,48.72
2022-07-25T10:35:43.443Z,47.23
2022-07-25T10:38:10.373Z,45.53
2022-07-25T10:40:46.439Z,50.38
2022-07-25T10:43:15.332Z,46.18
2022-07-25T10:45:58.437Z,45.68
2022-07-25T10:48:27.996Z,43.38
2022-07-25T10:51:03.035Z,45.05
2022-07-25T10:53:33.164Z,44.96
2022-07-25T10:56:08.165Z,43.66
2022-07-25T10:58:52.671Z,45.93
2022-07-25T11:01:40.561Z,45.29
2022-07-25T11:04:15.860Z,45.05
2022-07-25T11:06:43.175Z,44.55
2022-07-25T11:09:24.950Z,45.46
2022-07-25T11:11:58.316Z,44.59
2022-07-25T11:14:27.534Z,45.21
2022-07-25T11:16:56.030Z,46.34
2022-07-25T11:19:29.793Z,43.82
2022-07-25T11:21:58.879Z,46.62
2022-07-25T11:24:45.792Z,45.57
2022-07-25T11:27:21.103Z,45.12
2022-07-25T11:29:47.672Z,44.92
2022-07-25T11:32:14.517Z,46.12
2022-07-25T11:34:52.284Z,45.44
2022-07-25T11:37:19.922Z,44.69
2022-07-25T11:39:48.509Z,46.79
2022-07-25T11:42:18.627Z,48.42
2022-07-25T11:44:49.170Z,46.35
2022-07-25T11:47:27.688Z,46.79
2022-07-25T11:49:55.966Z,47.27
2022-07-25T11:52:34.054Z,47.56
2022-07-25T11:55:13.968Z,47.27
2022-07-25T11:57:46.476Z,48.46
2022-07-25T12:00:17.282Z,47.83
2022-07-25T12:02:44.592Z,45.61
2022-07-25T12:05:13.876Z,44.67
2022-07-25T12:07:47.501Z,45.19
2022-07-25T12:10:35.083Z,43.79
2022-07-25T12:13:04.069Z,44.92
2022-07-25T12:15:33.594Z,43.12
2022-07-25T12:18:01.878Z,44.38
2022-07-25T12:20:31.170Z,44.10
2022-07-25T12:23:04.695Z,41.79
2022-07-25T12:25:32.502Z,43.61
2022-07-25T12:28:00.487Z,42.75
2022-07-25T12:30:34.305Z,42.75
2022-07-25T12:33:01.674Z,43.42
2022-07-25T12:35:29.400Z,44.04
2022-07-25T12:37:56.297Z,45.98
2022-07-25T12:40:23.755Z,42.73
2022-07-25T12:42:51.123Z,41.69
2022-07-25T12:45:18.006Z,43.62
2022-07-25T12:47:46.383Z,41.05
2022-07-25T12:50:13.809Z,43.95
2022-07-25T12:52:41.086Z,41.72
2022-07-25T12:55:09.645Z,42.81
2022-07-25T12:57:37.391Z,43.56
2022-07-25T13:00:09.920Z,44.36
2022-07-25T13:02:36.609Z,44.32
2022-07-25T13:05:03.962Z,44.08
2022-07-25T13:07:30.566Z,43.80
2022-07-25T13:09:57.104Z,44.49
2022-07-25T13:12:24.154Z,44.25
2022-07-25T13:14:51.526Z,42.74
2022-07-25T13:17:19.714Z,42.83
2022-07-25T13:19:48.987Z,44.17
2022-07-25T13:22:15.558Z,43.97
2022-07-25T13:24:42.108Z,44.22
2022-07-25T13:27:08.654Z,43.21
2022-07-25T13:29:35.194Z,44.42
2022-07-25T13:32:02.490Z,45.67
2022-07-25T13:34:29.208Z,44.68
2022-07-25T13:36:55.834Z,43.79
2022-07-25T13:39:22.509Z,44.84
2022-07-25T13:41:49.806Z,45.40
2022-07-25T13:44:16.339Z,45.17
2022-07-25T13:46:46.030Z,44.49
2022-07-25T13:49:12.964Z,44.62
2022-07-25T13:51:39.539Z,45.36
2022-07-25T13:54:06.094Z,44.75
2022-07-25T13:56:33.456Z,45.74
2022-07-25T13:59:00.096Z,44.56
2022-07-25T14:01:28.611Z,43.82
2022-07-25T14:03:55.589Z,43.89
2022-07-25T14:06:22.491Z,44.26
2022-07-25T14:08:49.040Z,43.39
2022-07-25T14:11:15.518Z,43.68
2022-07-25T14:13:43.618Z,44.41
2022-07-25T14:16:10.502Z,45.09
2022-07-25T14:18:37.095Z,43.63
2022-07-25T14:21:03.931Z,44.88
2022-07-25T14:23:30.521Z,43.65
2022-07-25T14:25:58.931Z,44.76
2022-07-25T14:28:25.940Z,42.60
2022-07-25T14:30:52.444Z,44.58
2022-07-25T14:33:19.119Z,44.49
2022-07-25T14:35:45.655Z,45.60
2022-07-25T14:38:12.131Z,44.41
2022-07-25T14:40:38.759Z,46.11
2022-07-25T14:43:05.316Z,45.75
2022-07-25T14:45:33.021Z,45.94
2022-07-25T14:47:59.663Z,45.21
2022-07-25T14:50:27.528Z,46.87
2022-07-25T14:52:54.322Z,45.60
2022-07-25T14:55:22.224Z,44.40
2022-07-25T14:57:48.760Z,44.83
2022-07-25T15:00:15.585Z,44.08
2022-07-25T15:02:42.892Z,44.64
2022-07-25T15:05:09.778Z,46.52
2022-07-25T15:07:37.796Z,46.24
2022-07-25T15:10:04.916Z,47.00
2022-07-25T15:12:31.525Z,45.71
2022-07-25T15:14:58.017Z,46.75
2022-07-25T15:17:24.510Z,46.92
2022-07-25T15:19:51.037Z,46.76
2022-07-25T15:22:17.506Z,46.09
2022-07-25T15:25:17.870Z,47.89
2022-07-25T15:27:31.209Z,47.55
2022-07-25T15:29:57.724Z,48.62
2022-07-25T15:32:24.195Z,49.24
2022-07-25T15:34:50.655Z,49.15
2022-07-25T15:37:17.154Z,49.57
2022-07-25T15:39:44.985Z,51.09
2022-07-25T15:42:11.470Z,49.88
2022-07-25T15:44:38.016Z,49.78
2022-07-25T15:47:06.631Z,50.07
2022-07-25T15:49:33.335Z,52.14
2022-07-25T15:52:00.174Z,53.27
2022-07-25T15:54:29.544Z,52.30
2022-07-25T15:56:56.384Z,53.88
2022-07-25T15:59:22.976Z,54.15
2022-07-25T16:01:49.499Z,52.78
2022-07-25T16:04:16.127Z,53.27
2022-07-25T16:06:42.991Z,53.15
2022-07-25T16:09:12.085Z,54.08
2022-07-25T16:11:38.775Z,54.65
2022-07-25T16:14:05.534Z,54.89
2022-07-25T16:16:32.283Z,56.11
2022-07-25T16:18:59.079Z,54.66
2022-07-25T16:21:25.784Z,55.93
2022-07-25T16:23:52.516Z,56.45
2022-07-25T16:26:19.248Z,56.96
2022-07-25T16:28:47.439Z,56.90
2022-07-25T16:31:14.213Z,56.84
2022-07-25T16:33:42.783Z,57.32
2022-07-25T16:36:11.053Z,59.23
2022-07-25T16:38:37.629Z,57.55
2022-07-25T16:41:04.247Z,57.31
2022-07-25T16:43:30.761Z,57.97
2022-07-25T16:45:58.067Z,57.87
2022-07-25T16:48:25.095Z,58.03
2022-07-25T16:50:51.763Z,58.19
2022-07-25T16:53:18.966Z,59.22
2022-07-25T16:55:46.110Z,60.27
2022-07-25T16:58:12.930Z,60.40
2022-07-25T17:00:40.851Z,59.08
2022-07-25T17:03:07.489Z,59.63
2022-07-25T17:05:35.541Z,58.08
2022-07-25T17:08:02.916Z,57.45
2022-07-25T17:10:31.486Z,58.10
2022-07-25T17:12:58.968Z,57.68
2022-07-25T17:15:25.604Z,57.60
2022-07-25T17:17:52.206Z,57.35
2022-07-25T17:20:21.424Z,57.09
2022-07-25T17:22:48.208Z,56.81
2022-07-25T17:25:16.836Z,55.80
2022-07-25T17:27:44.738Z,55.53
2022-07-25T17:30:11.771Z,56.56
2022-07-25T17:32:42.127Z,56.16
2022-07-25T17:35:08.865Z,54.45
2022-07-25T17:37:36.036Z,55.91
2022-07-25T17:40:02.764Z,57.51
2022-07-25T17:42:32.510Z,56.04
2022-07-25T17:45:00.301Z,55.61
2022-07-25T17:47:27.058Z,55.88
2022-07-25T17:49:53.590Z,54.98
2022-07-25T17:52:21.863Z,54.30
2022-07-25T17:54:51.969Z,54.32
2022-07-25T17:57:19.222Z,54.92
2022-07-25T17:59:45.722Z,55.67
2022-07-25T18:02:12.335Z,54.78
2022-07-25T18:04:38.836Z,55.15
2022-07-25T18:07:05.479Z,54.30
2022-07-25T18:09:33.454Z,54.63
2022-07-25T18:12:00.214Z,54.21
2022-07-25T18:14:29.653Z,53.48
2022-07-25T18:16:57.541Z,53.52
2022-07-25T18:19:25.132Z,53.51
2022-07-25T18:21:52.223Z,54.49
2022-07-25T18:24:19.298Z,54.80
2022-07-25T18:26:46.531Z,53.74
2022-07-25T18:29:13.118Z,55.17
2022-07-25T18:31:39.755Z,54.55
2022-07-25T18:34:06.573Z,54.51
2022-07-25T18:36:33.593Z,55.53
2022-07-25T18:39:00.549Z,55.14
2022-07-25T18:41:29.687Z,55.11
2022-07-25T18:43:57.019Z,55.76
2022-07-25T18:46:24.019Z,55.05
2022-07-25T18:48:50.720Z,56.32
2022-07-25T18:51:17.429Z,55.58
2022-07-25T18:53:48.058Z,56.81
2022-07-25T18:56:15.910Z,56.76
2022-07-25T18:58:42.550Z,56.42
2022-07-25T19:01:09.498Z,56.06
2022-07-25T19:03:37.497Z,56.83
2022-07-25T19:06:05.282Z,56.81
2022-07-25T19:08:32.542Z,57.94
2022-07-25T19:10:59.359Z,57.42
2022-07-25T19:13:48.146Z,57.52
2022-07-25T19:16:13.413Z,57.99
2022-07-25T19:18:42.716Z,58.12
2022-07-25T19:21:09.501Z,57.41
2022-07-25T19:23:36.002Z,57.37
2022-07-25T19:26:03.322Z,58.54
2022-07-25T19:28:30.333Z,57.11
2022-07-25T19:30:57.303Z,57.60
2022-07-25T19:33:24.398Z,57.63
2022-07-25T19:35:51.010Z,56.66
2022-07-25T19:38:19.550Z,57.36
2022-07-25T19:40:46.446Z,57.80
2022-07-25T19:43:13.746Z,57.60
2022-07-25T19:45:40.695Z,56.50
2022-07-25T19:48:07.754Z,57.39
2022-07-25T19:50:34.672Z,57.05
2022-07-25T19:53:01.623Z,56.51
2022-07-25T19:55:28.708Z,55.48
2022-07-25T19:57:55.694Z,54.69
2022-07-25T20:00:23.014Z,54.76
2022-07-25T20:02:49.583Z,54.75
2022-07-25T20:05:17.355Z,54.85
2022-07-25T20:07:43.842Z,54.48
2022-07-25T20:10:10.848Z,54.27
2022-07-25T20:12:38.172Z,54.67
2022-07-25T20:15:05.413Z,54.87
2022-07-25T20:17:31.936Z,55.24
2022-07-25T20:19:58.655Z,55.08
2022-07-25T20:22:25.874Z,54.41
2022-07-25T20:24:52.574Z,54.65
2022-07-25T20:27:19.245Z,54.56
2022-07-25T20:29:46.267Z,55.54
2022-07-25T20:32:12.807Z,55.45
2022-07-25T20:34:39.492Z,54.61
2022-07-25T20:37:05.993Z,54.84
2022-07-25T20:39:32.676Z,55.56
2022-07-25T20:41:59.285Z,54.78
2022-07-25T20:44:25.842Z,55.99
2022-07-25T20:46:52.478Z,56.25
2022-07-25T20:49:19.110Z,56.13
2022-07-25T20:51:49.824Z,55.62
2022-07-25T20:54:19.161Z,56.74
2022-07-25T20:56:45.734Z,56.98
2022-07-25T20:59:12.492Z,56.59
2022-07-25T21:01:40.017Z,57.91
2022-07-25T21:04:07.754Z,57.85
2022-07-25T21:06:34.836Z,57.66
2022-07-25T21:09:04.131Z,57.39
2022-07-25T21:11:30.844Z,56.90
2022-07-25T21:13:57.465Z,57.69
2022-07-25T21:16:24.157Z,57.43
2022-07-25T21:18:50.683Z,59.01
2022-07-25T21:21:17.622Z,58.79
2022-07-25T21:23:44.260Z,58.20
2022-07-25T21:26:12.501Z,57.56
2022-07-25T21:28:39.037Z,57.95
2022-07-25T21:31:05.636Z,58.08
2022-07-25T21:33:32.519Z,58.16
2022-07-25T21:35:59.305Z,58.75
2022-07-25T21:38:28.849Z,59.48
2022-07-25T21:40:58.491Z,58.83
2022-07-25T21:43:25.071Z,59.25
2022-07-25T21:45:51.955Z,58.89
2022-07-25T21:48:22.047Z,59.16
2022-07-25T21:50:50.452Z,58.68
2022-07-25T21:53:17.276Z,59.85
2022-07-25T21:55:43.746Z,59.73
2022-07-25T21:58:10.254Z,60.23
2022-07-25T22:00:43.929Z,61.40
2022-07-25T22:03:12.015Z,61.49
2022-07-25T22:05:39.263Z,61.53
2022-07-25T22:08:05.916Z,61.18
2022-07-25T22:10:33.540Z,62.18
2022-07-25T22:13:00.231Z,60.79
2022-07-25T22:15:27.419Z,60.77
2022-07-25T22:17:54.153Z,61.43
2022-07-25T22:20:21.211Z,61.75
2022-07-25T22:22:48.517Z,60.81
2022-07-25T22:25:15.835Z,61.57
2022-07-25T22:27:43.235Z,62.48
2022-07-25T22:30:16.156Z,62.17
2022-07-25T22:32:45.655Z,62.18
2022-07-25T22:35:12.793Z,62.44
2022-07-25T22:37:39.399Z,64.29
2022-07-25T22:40:06.426Z,62.85
2022-07-25T22:42:32.877Z,61.70
2022-07-25T22:44:59.340Z,62.48
2022-07-25T22:47:25.832Z,63.51
2022-07-25T22:49:52.306Z,62.18
2022-07-25T22:52:18.794Z,62.68
2022-07-25T22:54:45.432Z,62.20
2022-07-25T22:57:11.985Z,62.88
2022-07-25T22:59:38.466Z,62.19
2022-07-25T23:02:05.045Z,62.49
2022-07-25T23:04:31.678Z,63.35
2022-07-25T23:06:58.155Z,63.20
2022-07-25T23:09:24.849Z,62.20
2022-07-25T23:12:03.040Z,63.00
2022-07-25T23:14:29.824Z,62.86
2022-07-25T23:17:14.939Z,62.48
2022-07-25T23:19:41.385Z,62.22
2022-07-25T23:22:07.827Z,62.71
2022-07-25T23:24:37.601Z,62.42
2022-07-25T23:27:05.124Z,63.33
2022-07-25T23:29:31.665Z,64.69
2022-07-25T23:31:58.313Z,64.74
2022-07-25T23:34:24.868Z,64.88
2022-07-25T23:36:51.358Z,65.06
2022-07-25T23:39:17.841Z,65.76
2022-07-25T23:41:44.310Z,65.39
2022-07-25T23:44:11.130Z,66.28
2022-07-25T23:46:38.668Z,67.11
2022-07-25T23:49:06.532Z,67.43
2022-07-25T23:51:33.312Z,67.91
2022-07-25T23:53:59.861Z,67.43
2022-07-25T23:56:26.677Z,67.04
2022-07-25T23:58:53.257Z,67.69
